Airfield :
LOGIN :

Register | Disclaimer

   EN    FR    IT 

 










Legend :    VFR   Marginal VFR   IFR   Intensive IFR   Very Intensive IFR
Visi :
Ceiling :
>= 8 km
>= 3000ft
5 to 8 km
1000 to 3000 ft
1500m to 5 km
500 to 1000 ft
800 to 1500m
200 to 500 ft
< 800m
< 200 ft
Symbols :   Thunderstorms  Fog  Heavy snow  Heavy precipitations  Wind > 20 kt
SIGMETs :     Misc.  Thunderstorms  Icing  Turbulence  Mountain Waves  Volcanic Ashes







- Airport Elevation : 2001 ft
- IATA code : MAD


LEMD - Madrid

CURRENT METAR :
  • 170400Z 00000KT 5000 BR FEW008 BKN012 02/02 Q1017 NOSIG

EXPIRED METARs :
  • 170330Z 34003KT 310V010 5000 BR FEW008 BKN012 02/02 Q1017 NOSIG
  • 170300Z VRB01KT 5000 BR BKN010 02/01 Q1017 NOSIG
  • 170230Z 36003KT 5000 BR BKN010 02/01 Q1017 NOSIG
  • 170200Z 35002KT 5000 BR BKN010 02/01 Q1017 NOSIG
  • 170130Z 34003KT 5000 BR FEW008 SCT012 01/01 Q1017 NOSIG

TAF AMD TAF LEMD
Valid from the 17 at 02:00 until the 18 at 06:00 UTC


170202Z 1702/1806 VRB04KT 5000 BR SCT010 BKN040 TX10/1716Z TNM05/1806Z
PROB40
TEMPO 1703/1709 3500 BR
TEMPO 1713/1717 35010KT
BECMG 1718/1721 FEW025
No reported NOTAMs for that airfield.



MET'MAP, your aeronautical weather chart ! - Copyright ORBIFLY December 2007 - Disclaimer

ORBIFLY MET'MAP TEAM :

Programming & Development : Alexandra Zaïnal
Concept & Development : Baudouin d'Aumeries
Co-Development & Prog : Marc-Olivier Méhu
Technical & hardware support : Manuel Goepfert

Contact : metmap@orbifly.com




SOURCES & CREDITS :

   NOAA